Fair Play, Missouri
Current Conditions -  °F | °C
As of 4:52 PM on Wednesday 22 Oct 2014 (Local Time) from KSGF Reporting Station
Clear Clear  
Wind Chill: 69°   Ceiling: Unl
Heat Index: 69°   Visibility: 10mi
Dew Point: 47°   Wind: 8mph
Humidity: 45%   Direction: 170°S
Pressure: 30.14"   Gusts: NA
Location:  37.63°N, 93.57°W
Report Text: KSGF 222152Z 17007KT 10SM CLR 21/08 A3014 RMK AO2 SLP201 T02060083
Loading
Personal Weather Stations






























Interactive Weather Map
Tropical Storm Tracking
New forecast layout! Learn more

10-Day Weather Forecast

Advertisements
Track Severe Weather on mobile